aviador You're here:

EPSC Decoded Metar

SZCZECIN in POLAND
Report Time2017-08-24 06:30:00
UTC Time2017-08-24 06:59:43
Flight Rules vfr VFR
WindVRB at 02 kt
Visibility9999 m
Phenomena:N/A
Clouds:N/A
Expected CloudBase > 800 ft AGL from Temp-Dew spread
CeilingNone
Temp13°C (ISA -2)
Dew Point11°C (88% RH)
AAT12.6°C
QNH1015 hPa
Density Alt-118 ft
Elevation10 ft
Report Wrong Elevation
Raw Report
EPSC 240630Z VRB02KT CAVOK 13/11 Q1015=

Extra information for EPSC:More info

Metar Taf Metar & Taf Last 4 Metars F.Rules Stats Wind Profile Meteogram Temp Stats Airport Information Weather charts Add Link Nearby VenuesMetar ALERT Operation Metar Decoded Social comments